Terminal Aerodrome Forecast
Issued by NWS

Home | Current Version | Previous Version | Text Only | Print | Product List | Glossary On
Versions: 1 2 3 4 5 6 7 8 9 10 11 12 13 14 15 16 17
000
FTAK31 PANC 272332
TAFADU
TAF
PADU 272332Z 2800/2824 30005KT P6SM VCSH SCT025 OVC035
      TEMPO 2801/2805 BKN025
     FM280900 VRB04KT P6SM OVC015
     FM282100 10004KT P6SM SCT025 BKN040=

USA.gov is the U.S. government's official web portal to all federal, state and local government web resources and services.